createdAt,value
2023-01-03T00:00:19.183Z,29.50
2023-01-03T00:03:23.583Z,29.00
2023-01-03T00:06:29.473Z,28.00
2023-01-03T00:09:34.134Z,29.80
2023-01-03T00:12:38.218Z,28.00
2023-01-03T00:15:41.544Z,28.40
2023-01-03T00:18:45.301Z,29.75
2023-01-03T00:21:48.511Z,29.40
2023-01-03T00:24:54.485Z,28.00
2023-01-03T00:27:58.048Z,31.00
2023-01-03T00:31:07.428Z,29.00
2023-01-03T00:34:10.977Z,30.00
2023-01-03T00:37:15.085Z,28.00
2023-01-03T00:40:19.708Z,27.80
2023-01-03T00:43:32.022Z,27.00
2023-01-03T00:46:35.922Z,28.00
2023-01-03T00:49:39.530Z,27.00
2023-01-03T00:52:42.822Z,27.00
2023-01-03T00:55:47.613Z,28.00
2023-01-03T00:58:51.287Z,27.00
2023-01-03T01:01:57.229Z,27.50
2023-01-03T01:05:00.611Z,26.20
2023-01-03T01:08:05.307Z,26.00
2023-01-03T01:11:10.587Z,26.00
2023-01-03T01:14:23.696Z,24.00
2023-01-03T01:17:28.430Z,27.00
2023-01-03T01:20:32.152Z,27.00
2023-01-03T01:23:37.193Z,24.00
2023-01-03T01:26:42.006Z,26.00
2023-01-03T01:29:45.249Z,25.00
2023-01-03T01:32:49.203Z,25.40
2023-01-03T01:35:52.492Z,24.00
2023-01-03T01:38:59.235Z,22.40
2023-01-03T01:42:30.225Z,23.40
2023-01-03T01:45:35.475Z,23.00
2023-01-03T01:48:39.026Z,24.00
2023-01-03T01:51:42.896Z,24.00
2023-01-03T01:54:46.848Z,23.00
2023-01-03T01:57:52.065Z,24.00
2023-01-03T02:00:55.969Z,26.00
2023-01-03T02:04:02.647Z,23.50
2023-01-03T02:07:07.676Z,24.50
2023-01-03T02:10:11.492Z,24.40
2023-01-03T02:13:25.999Z,25.20
2023-01-03T02:16:52.988Z,26.00
2023-01-03T02:20:17.700Z,24.80
2023-01-03T02:23:54.498Z,24.00
2023-01-03T02:27:05.635Z,24.00
2023-01-03T02:30:24.373Z,26.00
2023-01-03T02:33:38.503Z,24.00
2023-01-03T02:36:52.862Z,26.80
2023-01-03T02:40:05.188Z,26.00
2023-01-03T02:43:16.998Z,23.00
2023-01-03T02:46:26.605Z,26.60
2023-01-03T02:49:35.781Z,25.60
2023-01-03T02:52:41.785Z,25.00
2023-01-03T02:55:47.918Z,25.00
2023-01-03T02:58:57.911Z,28.00
2023-01-03T03:02:05.094Z,25.50
2023-01-03T03:05:15.831Z,25.25
2023-01-03T03:08:19.421Z,25.80
2023-01-03T03:11:41.756Z,24.00
2023-01-03T03:14:50.206Z,24.00
2023-01-03T03:17:59.295Z,24.00
2023-01-03T03:21:23.542Z,25.00
2023-01-03T03:24:54.644Z,24.00
2023-01-03T03:28:18.911Z,26.00
2023-01-03T03:31:30.492Z,23.25
2023-01-03T03:34:38.897Z,23.00
2023-01-03T03:37:46.309Z,23.60
2023-01-03T03:41:18.239Z,23.80
2023-01-03T03:45:02.739Z,23.00
2023-01-03T03:48:13.574Z,23.00
2023-01-03T03:51:21.368Z,22.20
2023-01-03T03:54:27.255Z,22.00
2023-01-03T03:57:36.445Z,24.00
2023-01-03T04:00:43.190Z,23.40
2023-01-03T04:03:49.024Z,21.25
2023-01-03T04:06:54.614Z,24.00
2023-01-03T04:09:57.914Z,22.00
2023-01-03T04:13:01.547Z,21.40
2023-01-03T04:16:06.965Z,21.40
2023-01-03T04:19:10.406Z,22.00
2023-01-03T04:22:15.026Z,21.75
2023-01-03T04:25:18.515Z,21.40
2023-01-03T04:28:22.020Z,21.00
2023-01-03T04:31:25.533Z,22.00
2023-01-03T04:34:28.950Z,23.50
2023-01-03T04:37:34.430Z,20.00
2023-01-03T04:40:38.798Z,20.75
2023-01-03T04:43:59.781Z,21.00
2023-01-03T04:47:03.029Z,22.00
2023-01-03T04:50:08.106Z,18.80
2023-01-03T04:53:15.132Z,19.80
2023-01-03T04:56:18.622Z,20.25
2023-01-03T04:59:21.875Z,19.00
2023-01-03T05:02:25.352Z,19.67
2023-01-03T05:05:28.677Z,19.00
2023-01-03T05:08:33.507Z,18.75
2023-01-03T05:11:36.825Z,17.00
2023-01-03T05:14:41.643Z,18.40
2023-01-03T05:17:45.002Z,17.80
2023-01-03T05:21:06.158Z,16.00
2023-01-03T05:24:30.215Z,16.60
2023-01-03T05:27:33.525Z,16.00
2023-01-03T05:30:36.796Z,17.20
2023-01-03T05:33:40.961Z,16.00
2023-01-03T05:36:44.245Z,14.40
2023-01-03T05:39:49.198Z,15.80
2023-01-03T05:42:52.478Z,15.00
2023-01-03T05:45:55.848Z,15.80
2023-01-03T05:48:59.379Z,16.00
2023-01-03T05:52:02.725Z,16.00
2023-01-03T05:55:08.204Z,12.50
2023-01-03T05:58:12.990Z,14.00
2023-01-03T06:01:16.776Z,15.75
2023-01-03T06:04:20.528Z,15.00
2023-01-03T06:07:23.843Z,15.80
2023-01-03T06:10:28.752Z,16.00
2023-01-03T06:13:32.167Z,15.20
2023-01-03T06:16:52.842Z,16.40
2023-01-03T06:19:56.206Z,15.40
2023-01-03T06:22:59.942Z,17.00
2023-01-03T06:26:05.801Z,16.00
2023-01-03T06:29:09.215Z,14.00
2023-01-03T06:32:12.501Z,17.00
2023-01-03T06:35:16.362Z,16.00
2023-01-03T06:38:19.729Z,15.20
2023-01-03T06:41:24.414Z,14.20
2023-01-03T06:44:27.698Z,15.00
2023-01-03T06:47:47.693Z,15.00
2023-01-03T06:51:08.262Z,16.00
2023-01-03T06:54:15.706Z,16.75
2023-01-03T06:57:25.728Z,20.00
2023-01-03T07:00:31.141Z,18.00
2023-01-03T07:03:34.683Z,19.00
2023-01-03T07:06:38.554Z,15.25
2023-01-03T07:09:41.879Z,17.00
2023-01-03T07:13:04.301Z,18.00
2023-01-03T07:16:08.060Z,18.25
2023-01-03T07:19:15.040Z,17.00
2023-01-03T07:22:18.266Z,17.00
2023-01-03T07:25:22.072Z,18.40
2023-01-03T07:28:26.839Z,18.00
2023-01-03T07:31:32.600Z,18.60
2023-01-03T07:34:36.218Z,19.40
2023-01-03T07:37:39.594Z,17.40
2023-01-03T07:40:42.836Z,17.00
2023-01-03T07:43:49.377Z,20.00
2023-01-03T07:46:52.641Z,18.00
2023-01-03T07:49:56.082Z,17.00
2023-01-03T07:52:59.373Z,19.25
2023-01-03T07:56:10.730Z,20.00
2023-01-03T07:59:17.482Z,21.50
2023-01-03T08:02:20.883Z,20.00
2023-01-03T08:05:25.223Z,19.00
2023-01-03T08:08:28.717Z,18.20
2023-01-03T08:11:51.321Z,19.40
2023-01-03T08:14:56.079Z,21.00
2023-01-03T08:17:59.453Z,20.00
2023-01-03T08:21:03.117Z,18.50
2023-01-03T08:24:06.691Z,20.00
2023-01-03T08:27:10.036Z,20.00
2023-01-03T08:30:15.107Z,21.67
2023-01-03T08:33:20.378Z,20.00
2023-01-03T08:36:25.134Z,18.00
2023-01-03T08:39:34.715Z,19.00
2023-01-03T08:42:39.050Z,20.00
2023-01-03T08:45:43.698Z,20.00
2023-01-03T08:48:47.980Z,19.00
2023-01-03T08:51:51.685Z,19.00
2023-01-03T08:54:54.739Z,18.20
2023-01-03T08:58:00.407Z,19.75
2023-01-03T09:01:06.877Z,21.00
2023-01-03T09:04:10.193Z,19.60
2023-01-03T09:07:13.373Z,20.00
2023-01-03T09:10:16.515Z,20.00
2023-01-03T09:13:19.584Z,20.00
2023-01-03T09:16:24.120Z,18.20
2023-01-03T09:19:27.263Z,20.00
2023-01-03T09:22:30.938Z,20.00
2023-01-03T09:25:37.393Z,19.00
2023-01-03T09:28:40.848Z,18.60
2023-01-03T09:31:46.004Z,19.00
2023-01-03T09:34:49.397Z,19.00
2023-01-03T09:37:52.531Z,17.80
2023-01-03T09:41:02.515Z,18.00
2023-01-03T09:44:08.198Z,18.80
2023-01-03T09:47:20.968Z,16.20
2023-01-03T09:50:39.473Z,17.75
2023-01-03T09:54:11.948Z,18.00
2023-01-03T09:57:37.363Z,15.40
2023-01-03T10:01:04.893Z,16.80
2023-01-03T10:04:28.550Z,18.00
2023-01-03T10:07:49.133Z,19.60
2023-01-03T10:11:01.976Z,17.50
2023-01-03T10:14:20.733Z,18.40
2023-01-03T10:17:35.584Z,15.00
2023-01-03T10:20:49.242Z,15.00
2023-01-03T10:23:55.958Z,15.00
2023-01-03T10:27:08.557Z,12.40
2023-01-03T10:30:17.751Z,11.40
2023-01-03T10:33:34.564Z,12.00
2023-01-03T10:36:38.974Z,9.00
2023-01-03T10:39:42.129Z,12.00
2023-01-03T10:42:46.504Z,9.25
2023-01-03T10:45:58.593Z,10.60
2023-01-03T10:49:27.926Z,11.00
2023-01-03T10:52:38.250Z,11.40
2023-01-03T10:55:48.322Z,11.40
2023-01-03T10:59:11.931Z,11.00
2023-01-03T11:02:18.098Z,12.00
2023-01-03T11:05:23.755Z,12.00
2023-01-03T11:08:41.961Z,11.00
2023-01-03T11:11:45.114Z,14.00
2023-01-03T11:14:52.057Z,14.00
2023-01-03T11:17:56.772Z,11.75
2023-01-03T11:21:13.788Z,11.00
2023-01-03T11:24:34.614Z,12.50
2023-01-03T11:28:03.728Z,12.50
2023-01-03T11:31:12.519Z,13.00
2023-01-03T11:35:11.381Z,14.00
2023-01-03T11:38:07.398Z,12.60
2023-01-03T11:41:22.263Z,14.00
2023-01-03T11:44:58.520Z,12.60
2023-01-03T11:48:22.097Z,15.00
2023-01-03T11:51:34.584Z,14.00
2023-01-03T11:55:14.111Z,14.00
2023-01-03T11:58:45.750Z,14.00
2023-01-03T12:02:22.173Z,15.00
2023-01-03T12:05:38.963Z,14.20
2023-01-03T12:08:49.552Z,14.60
2023-01-03T12:12:09.334Z,14.00
2023-01-03T12:15:22.934Z,18.00
2023-01-03T12:18:34.246Z,17.50
2023-01-03T12:21:39.193Z,16.20
2023-01-03T12:24:50.380Z,17.00
2023-01-03T12:28:02.129Z,14.00
2023-01-03T12:31:14.964Z,16.00
2023-01-03T12:34:27.094Z,13.00
2023-01-03T12:37:36.521Z,15.00
2023-01-03T12:40:46.811Z,14.00
2023-01-03T12:43:55.733Z,13.00
2023-01-03T12:47:01.762Z,14.40
2023-01-03T12:50:15.865Z,16.00
2023-01-03T12:53:27.218Z,15.00
2023-01-03T12:56:55.441Z,14.00
2023-01-03T13:00:14.224Z,14.00
2023-01-03T13:03:23.719Z,15.40
2023-01-03T13:06:31.497Z,12.00
2023-01-03T13:09:38.636Z,13.00
2023-01-03T13:12:46.422Z,15.00
2023-01-03T13:15:49.888Z,13.00
2023-01-03T13:18:54.393Z,14.60
2023-01-03T13:22:04.311Z,13.00
2023-01-03T13:25:31.314Z,11.80
2023-01-03T13:28:36.051Z,13.00
2023-01-03T13:31:41.450Z,14.00
2023-01-03T13:34:46.650Z,13.50
2023-01-03T13:37:51.374Z,9.00
2023-01-03T13:44:23.311Z,12.60
2023-01-03T13:47:34.600Z,15.00
2023-01-03T13:50:39.520Z,12.50
2023-01-03T13:53:55.481Z,14.00
2023-01-03T13:57:03.582Z,13.00
2023-01-03T14:00:18.912Z,11.00
2023-01-03T14:03:51.783Z,13.60
2023-01-03T14:07:15.241Z,12.60
2023-01-03T14:10:47.411Z,14.40
2023-01-03T14:13:53.759Z,16.00
2023-01-03T14:16:58.836Z,11.40
2023-01-03T14:20:09.693Z,14.00
2023-01-03T14:23:57.832Z,13.50
2023-01-03T14:26:40.887Z,12.60
2023-01-03T14:29:49.811Z,14.00
2023-01-03T14:32:53.319Z,14.25
2023-01-03T14:36:03.032Z,14.00
2023-01-03T14:39:08.186Z,15.20
2023-01-03T14:42:17.383Z,16.00
2023-01-03T14:45:22.147Z,14.00
2023-01-03T14:48:26.063Z,16.60
2023-01-03T14:51:32.520Z,16.00
2023-01-03T14:54:39.201Z,16.00
2023-01-03T14:57:44.035Z,16.25
2023-01-03T15:00:48.635Z,19.60
2023-01-03T15:03:53.632Z,15.00
2023-01-03T15:07:06.556Z,17.25
2023-01-03T15:10:29.827Z,19.40
2023-01-03T15:13:36.335Z,18.00
2023-01-03T15:16:41.814Z,17.00
2023-01-03T15:19:51.866Z,16.00
2023-01-03T15:22:56.243Z,18.00
2023-01-03T15:26:00.844Z,17.00
2023-01-03T15:29:09.246Z,16.50
2023-01-03T15:32:12.624Z,16.60
2023-01-03T15:35:20.685Z,17.00
2023-01-03T15:38:31.869Z,16.20
2023-01-03T15:42:19.985Z,18.00
2023-01-03T15:45:25.676Z,17.50
2023-01-03T15:48:30.162Z,15.60
2023-01-03T15:51:33.277Z,17.80
2023-01-03T15:54:36.597Z,16.60
2023-01-03T15:57:41.492Z,17.20
2023-01-03T16:00:44.719Z,16.25
2023-01-03T16:03:49.616Z,17.20
2023-01-03T16:06:53.646Z,18.00
2023-01-03T16:09:57.052Z,19.00
2023-01-03T16:13:02.032Z,20.00
2023-01-03T16:16:06.904Z,18.00
2023-01-03T16:19:19.312Z,20.20
2023-01-03T16:22:34.382Z,19.60
2023-01-03T16:25:39.099Z,20.00
2023-01-03T16:28:43.709Z,22.00
2023-01-03T16:31:48.137Z,20.00
2023-01-03T16:34:52.751Z,20.40
2023-01-03T16:37:56.073Z,21.00
2023-01-03T16:40:59.758Z,22.25
2023-01-03T16:44:05.023Z,23.00
2023-01-03T16:47:14.291Z,22.00
2023-01-03T16:50:21.709Z,22.20
2023-01-03T16:53:29.703Z,23.00
2023-01-03T16:56:33.470Z,23.00
2023-01-03T16:59:38.228Z,23.00
2023-01-03T17:02:41.735Z,23.00
2023-01-03T17:05:45.656Z,22.80
2023-01-03T17:08:49.047Z,24.80
2023-01-03T17:11:53.308Z,24.40
2023-01-03T17:14:58.317Z,23.25
2023-01-03T17:18:01.566Z,24.00
2023-01-03T17:21:13.375Z,27.00
2023-01-03T17:24:20.920Z,24.40
2023-01-03T17:27:31.816Z,22.00
2023-01-03T17:30:38.847Z,24.00
2023-01-03T17:33:42.251Z,23.00
2023-01-03T17:36:45.589Z,23.00
2023-01-03T17:39:55.101Z,23.00
2023-01-03T17:42:59.562Z,26.00
2023-01-03T17:46:42.097Z,26.00
2023-01-03T17:49:45.367Z,26.80
2023-01-03T17:52:55.378Z,25.20
2023-01-03T17:55:59.393Z,27.00
2023-01-03T17:59:03.014Z,27.00
2023-01-03T18:02:18.013Z,26.00
2023-01-03T18:05:27.732Z,27.00
2023-01-03T18:08:31.487Z,26.00
2023-01-03T18:11:35.074Z,27.60
2023-01-03T18:14:38.378Z,26.00
2023-01-03T18:17:43.520Z,24.60
2023-01-03T18:20:47.250Z,25.00
2023-01-03T18:23:57.812Z,24.75
2023-01-03T18:27:01.159Z,27.00
2023-01-03T18:30:04.919Z,28.00
2023-01-03T18:33:10.209Z,28.00
2023-01-03T18:36:37.130Z,27.25
2023-01-03T18:39:40.443Z,28.00
2023-01-03T18:43:00.805Z,25.40
2023-01-03T18:46:04.990Z,27.00
2023-01-03T18:49:10.460Z,28.00
2023-01-03T18:52:24.828Z,28.00
2023-01-03T18:55:31.505Z,29.00
2023-01-03T18:58:37.657Z,28.00
2023-01-03T19:01:41.001Z,28.00
2023-01-03T19:04:51.033Z,28.00
2023-01-03T19:07:55.038Z,28.25
2023-01-03T19:11:04.875Z,30.00
2023-01-03T19:14:09.048Z,29.00
2023-01-03T19:17:13.217Z,30.00
2023-01-03T19:20:21.885Z,30.80
2023-01-03T19:23:28.496Z,30.00
2023-01-03T19:26:35.662Z,29.00
2023-01-03T19:29:39.851Z,30.60
2023-01-03T19:32:44.166Z,30.50
2023-01-03T19:35:50.722Z,28.20
2023-01-03T19:38:54.007Z,30.00
2023-01-03T19:42:17.229Z,29.50
2023-01-03T19:45:27.504Z,30.00
2023-01-03T19:48:30.768Z,30.00
2023-01-03T19:51:35.447Z,30.00
2023-01-03T19:54:38.725Z,31.00
2023-01-03T19:57:45.320Z,29.75
2023-01-03T20:00:49.681Z,30.60
2023-01-03T20:03:53.440Z,30.80
2023-01-03T20:06:58.144Z,31.00
2023-01-03T20:10:02.007Z,31.00
2023-01-03T20:13:07.123Z,31.80
2023-01-03T20:16:12.510Z,31.00
2023-01-03T20:19:18.037Z,31.40
2023-01-03T20:23:02.368Z,30.00
2023-01-03T20:25:48.068Z,31.60
2023-01-03T20:28:52.905Z,30.00
2023-01-03T20:31:57.183Z,31.00
2023-01-03T20:35:13.006Z,30.00
2023-01-03T20:38:27.280Z,31.00
2023-01-03T20:41:37.326Z,32.00
2023-01-03T20:44:40.934Z,30.60
2023-01-03T20:47:46.320Z,31.00
2023-01-03T20:50:49.993Z,33.00
2023-01-03T20:53:55.533Z,32.20
2023-01-03T20:56:59.000Z,32.20
2023-01-03T21:00:02.361Z,31.00
2023-01-03T21:03:05.863Z,33.00
2023-01-03T21:06:18.717Z,34.00
2023-01-03T21:09:23.389Z,32.80
2023-01-03T21:12:29.839Z,33.00
2023-01-03T21:15:38.015Z,32.60
2023-01-03T21:18:41.833Z,32.60
2023-01-03T21:21:46.910Z,33.00
2023-01-03T21:24:57.383Z,33.50
2023-01-03T21:28:02.517Z,34.00
2023-01-03T21:31:06.257Z,35.20
2023-01-03T21:34:17.466Z,36.50
2023-01-03T21:37:20.827Z,38.00
2023-01-03T21:40:27.352Z,38.00
2023-01-03T21:43:30.768Z,39.00
2023-01-03T21:46:34.305Z,40.60
2023-01-03T21:49:37.631Z,39.00
2023-01-03T21:52:40.885Z,44.80
2023-01-03T21:55:46.333Z,41.40
2023-01-03T21:58:50.347Z,39.00
2023-01-03T22:02:11.118Z,39.50
2023-01-03T22:05:14.500Z,41.00
2023-01-03T22:08:17.829Z,37.00
2023-01-03T22:11:22.864Z,37.00
2023-01-03T22:14:26.247Z,35.40
2023-01-03T22:17:29.648Z,37.00
2023-01-03T22:20:38.212Z,40.80
2023-01-03T22:23:42.169Z,37.80
2023-01-03T22:26:46.889Z,36.40
2023-01-03T22:29:50.141Z,35.00
2023-01-03T22:32:54.042Z,37.00
2023-01-03T22:35:59.005Z,36.00
2023-01-03T22:39:02.291Z,36.20
2023-01-03T22:42:07.105Z,35.00
2023-01-03T22:45:11.511Z,34.00
2023-01-03T22:48:15.012Z,33.60
2023-01-03T22:51:18.919Z,34.00
2023-01-03T22:54:22.582Z,34.00
2023-01-03T22:57:27.246Z,34.40
2023-01-03T23:00:30.557Z,35.00
2023-01-03T23:03:34.112Z,33.50
2023-01-03T23:06:37.689Z,34.60
2023-01-03T23:09:41.531Z,33.50
2023-01-03T23:13:05.846Z,37.40
2023-01-03T23:16:09.423Z,34.20
2023-01-03T23:19:15.444Z,37.00
2023-01-03T23:22:18.956Z,36.40
2023-01-03T23:25:23.114Z,35.00
2023-01-03T23:28:27.821Z,38.60
2023-01-03T23:31:31.190Z,39.00
2023-01-03T23:34:34.654Z,36.25
2023-01-03T23:37:37.969Z,39.00
2023-01-03T23:40:42.015Z,39.20
2023-01-03T23:43:46.877Z,37.00
2023-01-03T23:46:50.172Z,35.00
2023-01-03T23:49:53.594Z,35.00
2023-01-03T23:52:56.925Z,35.00
2023-01-03T23:56:05.028Z,35.00
2023-01-03T23:59:09.790Z,35.00
